sensor_id;sensor_type;location;lat;lon;timestamp;pressure;altitude;pressure_sealevel;temperature;humidity
59274;BME280;45044;41.572;24.730;2023-03-03T00:00:04;91286.09;;;1.31;100.00
59274;BME280;45044;41.572;24.730;2023-03-03T00:02:32;91273.09;;;1.40;100.00
59274;BME280;45044;41.572;24.730;2023-03-03T00:04:58;91283.09;;;1.50;100.00
59274;BME280;45044;41.572;24.730;2023-03-03T00:07:25;91274.16;;;1.39;100.00
59274;BME280;45044;41.572;24.730;2023-03-03T00:09:52;91277.38;;;1.57;100.00
59274;BME280;45044;41.572;24.730;2023-03-03T00:12:25;91277.94;;;1.63;100.00
59274;BME280;45044;41.572;24.730;2023-03-03T00:14:53;91276.38;;;1.49;100.00
59274;BME280;45044;41.572;24.730;2023-03-03T00:17:28;91276.19;;;1.54;100.00
59274;BME280;45044;41.572;24.730;2023-03-03T00:19:55;91277.09;;;1.71;100.00
59274;BME280;45044;41.572;24.730;2023-03-03T00:22:42;91271.22;;;1.62;100.00
59274;BME280;45044;41.572;24.730;2023-03-03T00:25:27;91270.03;;;1.81;100.00
59274;BME280;45044;41.572;24.730;2023-03-03T00:27:55;91270.94;;;1.97;100.00
59274;BME280;45044;41.572;24.730;2023-03-03T00:30:26;91268.75;;;1.87;100.00
59274;BME280;45044;41.572;24.730;2023-03-03T00:32:53;91255.13;;;1.77;100.00
59274;BME280;45044;41.572;24.730;2023-03-03T00:35:26;91248.69;;;1.96;100.00
59274;BME280;45044;41.572;24.730;2023-03-03T00:37:57;91258.50;;;1.90;100.00
59274;BME280;45044;41.572;24.730;2023-03-03T00:40:38;91250.69;;;1.78;100.00
59274;BME280;45044;41.572;24.730;2023-03-03T00:43:23;91258.84;;;1.67;100.00
59274;BME280;45044;41.572;24.730;2023-03-03T00:45:54;91259.69;;;1.93;100.00
59274;BME280;45044;41.572;24.730;2023-03-03T00:48:28;91260.53;;;1.85;100.00
59274;BME280;45044;41.572;24.730;2023-03-03T00:50:59;91224.72;;;1.65;100.00
59274;BME280;45044;41.572;24.730;2023-03-03T00:53:28;91251.28;;;1.96;100.00
59274;BME280;45044;41.572;24.730;2023-03-03T00:55:56;91234.78;;;2.13;100.00
59274;BME280;45044;41.572;24.730;2023-03-03T00:58:23;91237.06;;;2.27;100.00
59274;BME280;45044;41.572;24.730;2023-03-03T01:00:52;91234.81;;;2.38;100.00
59274;BME280;45044;41.572;24.730;2023-03-03T01:03:22;91235.88;;;2.25;100.00
59274;BME280;45044;41.572;24.730;2023-03-03T01:05:51;91231.41;;;2.13;100.00
59274;BME280;45044;41.572;24.730;2023-03-03T01:08:19;91223.81;;;1.95;100.00
59274;BME280;45044;41.572;24.730;2023-03-03T01:10:49;91225.81;;;2.11;100.00
59274;BME280;45044;41.572;24.730;2023-03-03T01:13:18;91229.03;;;2.08;100.00
59274;BME280;45044;41.572;24.730;2023-03-03T01:15:46;91227.97;;;2.09;100.00
59274;BME280;45044;41.572;24.730;2023-03-03T01:18:13;91215.03;;;2.34;100.00
59274;BME280;45044;41.572;24.730;2023-03-03T01:20:41;91219.88;;;2.10;100.00
59274;BME280;45044;41.572;24.730;2023-03-03T01:23:08;91219.66;;;2.15;100.00
59274;BME280;45044;41.572;24.730;2023-03-03T01:25:35;91216.09;;;2.33;100.00
59274;BME280;45044;41.572;24.730;2023-03-03T01:28:02;91218.25;;;2.18;100.00
59274;BME280;45044;41.572;24.730;2023-03-03T01:30:30;91214.78;;;2.14;100.00
59274;BME280;45044;41.572;24.730;2023-03-03T01:32:57;91207.97;;;2.09;100.00
59274;BME280;45044;41.572;24.730;2023-03-03T01:35:24;91217.72;;;2.12;100.00
59274;BME280;45044;41.572;24.730;2023-03-03T01:37:50;91216.41;;;2.06;100.00
59274;BME280;45044;41.572;24.730;2023-03-03T01:40:21;91201.38;;;1.99;100.00
59274;BME280;45044;41.572;24.730;2023-03-03T01:42:48;91203.97;;;1.99;100.00
59274;BME280;45044;41.572;24.730;2023-03-03T01:45:19;91203.53;;;2.10;100.00
59274;BME280;45044;41.572;24.730;2023-03-03T01:50:50;91217.53;;;1.84;100.00
59274;BME280;45044;41.572;24.730;2023-03-03T01:53:33;91216.03;;;1.83;100.00
59274;BME280;45044;41.572;24.730;2023-03-03T01:56:04;91217.25;;;1.98;100.00
59274;BME280;45044;41.572;24.730;2023-03-03T01:58:54;91210.66;;;2.00;100.00
59274;BME280;45044;41.572;24.730;2023-03-03T02:01:25;91206.13;;;1.97;100.00
59274;BME280;45044;41.572;24.730;2023-03-03T02:03:53;91207.34;;;2.25;100.00
59274;BME280;45044;41.572;24.730;2023-03-03T02:06:24;91213.38;;;2.17;100.00
59274;BME280;45044;41.572;24.730;2023-03-03T02:11:48;91211.97;;;1.94;100.00
59274;BME280;45044;41.572;24.730;2023-03-03T02:14:16;91221.25;;;2.08;100.00
59274;BME280;45044;41.572;24.730;2023-03-03T02:16:43;91214.78;;;2.01;100.00
59274;BME280;45044;41.572;24.730;2023-03-03T02:20:08;91206.13;;;1.97;100.00
59274;BME280;45044;41.572;24.730;2023-03-03T02:22:07;91198.31;;;1.85;100.00
59274;BME280;45044;41.572;24.730;2023-03-03T02:24:52;91210.41;;;1.81;100.00
59274;BME280;45044;41.572;24.730;2023-03-03T02:27:24;91208.34;;;1.74;100.00
59274;BME280;45044;41.572;24.730;2023-03-03T02:29:51;91210.50;;;1.84;100.00
59274;BME280;45044;41.572;24.730;2023-03-03T02:32:18;91206.94;;;1.76;100.00
59274;BME280;45044;41.572;24.730;2023-03-03T02:34:50;91204.97;;;1.73;100.00
59274;BME280;45044;41.572;24.730;2023-03-03T02:37:18;91208.00;;;1.75;100.00
59274;BME280;45044;41.572;24.730;2023-03-03T02:39:46;91209.25;;;1.57;100.00
59274;BME280;45044;41.572;24.730;2023-03-03T02:42:25;91203.75;;;1.58;100.00
59274;BME280;45044;41.572;24.730;2023-03-03T02:44:53;91212.75;;;1.39;100.00
59274;BME280;45044;41.572;24.730;2023-03-03T02:47:20;91215.72;;;1.50;100.00
59274;BME280;45044;41.572;24.730;2023-03-03T02:49:46;91212.91;;;1.55;100.00
59274;BME280;45044;41.572;24.730;2023-03-03T02:52:13;91209.47;;;1.64;100.00
59274;BME280;45044;41.572;24.730;2023-03-03T02:54:40;91211.41;;;1.54;100.00
59274;BME280;45044;41.572;24.730;2023-03-03T02:57:07;91213.56;;;1.52;100.00
59274;BME280;45044;41.572;24.730;2023-03-03T02:59:34;91213.69;;;1.56;100.00
59274;BME280;45044;41.572;24.730;2023-03-03T03:02:02;91212.34;;;1.50;100.00
59274;BME280;45044;41.572;24.730;2023-03-03T03:04:28;91206.06;;;1.72;100.00
59274;BME280;45044;41.572;24.730;2023-03-03T03:06:55;91212.03;;;1.51;100.00
59274;BME280;45044;41.572;24.730;2023-03-03T03:09:23;91210.22;;;1.52;100.00
59274;BME280;45044;41.572;24.730;2023-03-03T03:11:51;91211.91;;;1.48;100.00
59274;BME280;45044;41.572;24.730;2023-03-03T03:14:18;91212.16;;;1.55;100.00
59274;BME280;45044;41.572;24.730;2023-03-03T03:16:45;91212.28;;;1.59;100.00
59274;BME280;45044;41.572;24.730;2023-03-03T03:19:11;91201.44;;;1.44;100.00
59274;BME280;45044;41.572;24.730;2023-03-03T03:21:38;91206.00;;;1.47;100.00
59274;BME280;45044;41.572;24.730;2023-03-03T03:24:05;91207.25;;;1.41;100.00
59274;BME280;45044;41.572;24.730;2023-03-03T03:26:32;91204.22;;;1.39;100.00
59274;BME280;45044;41.572;24.730;2023-03-03T03:28:59;91199.47;;;1.41;100.00
59274;BME280;45044;41.572;24.730;2023-03-03T03:31:26;91201.06;;;1.54;100.00
59274;BME280;45044;41.572;24.730;2023-03-03T03:33:53;91209.25;;;1.57;100.00
59274;BME280;45044;41.572;24.730;2023-03-03T03:36:20;91202.50;;;1.43;100.00
59274;BME280;45044;41.572;24.730;2023-03-03T03:38:46;91198.59;;;1.37;100.00
59274;BME280;45044;41.572;24.730;2023-03-03T03:41:13;91200.13;;;1.38;100.00
59274;BME280;45044;41.572;24.730;2023-03-03T03:43:40;91193.72;;;1.35;100.00
59274;BME280;45044;41.572;24.730;2023-03-03T03:46:07;91197.34;;;1.43;100.00
59274;BME280;45044;41.572;24.730;2023-03-03T03:48:34;91201.63;;;1.39;100.00
59274;BME280;45044;41.572;24.730;2023-03-03T03:51:02;91196.41;;;1.26;100.00
59274;BME280;45044;41.572;24.730;2023-03-03T03:53:29;91186.72;;;1.36;100.00
59274;BME280;45044;41.572;24.730;2023-03-03T03:55:56;91192.22;;;1.34;100.00
59274;BME280;45044;41.572;24.730;2023-03-03T03:58:22;91194.38;;;1.32;100.00
59274;BME280;45044;41.572;24.730;2023-03-03T04:00:49;91197.91;;;1.27;100.00
59274;BME280;45044;41.572;24.730;2023-03-03T04:03:16;91189.50;;;1.09;100.00
59274;BME280;45044;41.572;24.730;2023-03-03T04:05:43;91185.28;;;1.04;100.00
59274;BME280;45044;41.572;24.730;2023-03-03T04:08:10;91192.63;;;1.02;100.00
59274;BME280;45044;41.572;24.730;2023-03-03T04:10:37;91198.94;;;1.14;100.00
59274;BME280;45044;41.572;24.730;2023-03-03T04:13:04;91200.00;;;1.13;100.00
59274;BME280;45044;41.572;24.730;2023-03-03T04:15:31;91198.28;;;1.17;100.00
59274;BME280;45044;41.572;24.730;2023-03-03T04:17:58;91199.19;;;1.00;100.00
59274;BME280;45044;41.572;24.730;2023-03-03T04:20:25;91199.13;;;1.09;100.00
59274;BME280;45044;41.572;24.730;2023-03-03T04:22:51;91194.16;;;1.03;100.00
59274;BME280;45044;41.572;24.730;2023-03-03T04:25:18;91198.81;;;1.10;100.00
59274;BME280;45044;41.572;24.730;2023-03-03T04:27:45;91201.97;;;1.16;100.00
59274;BME280;45044;41.572;24.730;2023-03-03T04:30:16;91196.16;;;1.19;100.00
59274;BME280;45044;41.572;24.730;2023-03-03T04:32:43;91202.59;;;1.13;100.00
59274;BME280;45044;41.572;24.730;2023-03-03T04:35:10;91200.81;;;1.04;100.00
59274;BME280;45044;41.572;24.730;2023-03-03T04:37:37;91200.31;;;1.11;100.00
59274;BME280;45044;41.572;24.730;2023-03-03T04:40:05;91193.25;;;0.99;100.00
59274;BME280;45044;41.572;24.730;2023-03-03T04:42:33;91195.91;;;1.12;100.00
59274;BME280;45044;41.572;24.730;2023-03-03T04:45:00;91198.25;;;1.04;100.00
59274;BME280;45044;41.572;24.730;2023-03-03T04:47:26;91198.03;;;1.10;100.00
59274;BME280;45044;41.572;24.730;2023-03-03T04:49:53;91194.81;;;1.13;100.00
59274;BME280;45044;41.572;24.730;2023-03-03T04:52:20;91198.94;;;0.92;100.00
59274;BME280;45044;41.572;24.730;2023-03-03T04:54:47;91200.38;;;1.02;100.00
59274;BME280;45044;41.572;24.730;2023-03-03T04:57:13;91201.22;;;1.15;100.00
59274;BME280;45044;41.572;24.730;2023-03-03T04:59:40;91190.72;;;1.12;100.00
59274;BME280;45044;41.572;24.730;2023-03-03T05:02:07;91201.97;;;1.16;100.00
59274;BME280;45044;41.572;24.730;2023-03-03T05:04:41;91193.06;;;1.04;100.00
59274;BME280;45044;41.572;24.730;2023-03-03T05:07:08;91197.34;;;1.00;100.00
59274;BME280;45044;41.572;24.730;2023-03-03T05:09:35;91198.69;;;1.06;100.00
59274;BME280;45044;41.572;24.730;2023-03-03T05:12:02;91198.94;;;1.14;100.00
59274;BME280;45044;41.572;24.730;2023-03-03T05:14:29;91200.69;;;1.01;100.00
59274;BME280;45044;41.572;24.730;2023-03-03T05:16:57;91199.66;;;1.02;100.00
59274;BME280;45044;41.572;24.730;2023-03-03T05:19:23;91199.94;;;1.00;100.00
59274;BME280;45044;41.572;24.730;2023-03-03T05:21:50;91199.00;;;1.05;100.00
59274;BME280;45044;41.572;24.730;2023-03-03T05:24:17;91202.53;;;1.00;100.00
59274;BME280;45044;41.572;24.730;2023-03-03T05:26:44;91201.84;;;0.91;100.00
59274;BME280;45044;41.572;24.730;2023-03-03T05:29:11;91204.00;;;0.89;100.00
59274;BME280;45044;41.572;24.730;2023-03-03T05:31:37;91208.53;;;0.92;100.00
59274;BME280;45044;41.572;24.730;2023-03-03T05:34:04;91203.59;;;0.78;100.00
59274;BME280;45044;41.572;24.730;2023-03-03T05:36:31;91204.91;;;0.84;100.00
59274;BME280;45044;41.572;24.730;2023-03-03T05:38:57;91212.22;;;0.82;100.00
59274;BME280;45044;41.572;24.730;2023-03-03T05:41:24;91207.63;;;0.88;100.00
59274;BME280;45044;41.572;24.730;2023-03-03T05:43:51;91212.81;;;0.88;100.00
59274;BME280;45044;41.572;24.730;2023-03-03T05:46:18;91217.84;;;0.84;100.00
59274;BME280;45044;41.572;24.730;2023-03-03T05:48:46;91214.47;;;0.92;100.00
59274;BME280;45044;41.572;24.730;2023-03-03T05:51:12;91219.72;;;0.83;100.00
59274;BME280;45044;41.572;24.730;2023-03-03T05:53:40;91214.91;;;0.94;100.00
59274;BME280;45044;41.572;24.730;2023-03-03T05:56:07;91214.66;;;0.87;100.00
59274;BME280;45044;41.572;24.730;2023-03-03T05:58:33;91220.22;;;0.98;100.00
59274;BME280;45044;41.572;24.730;2023-03-03T06:01:01;91218.75;;;0.88;100.00
59274;BME280;45044;41.572;24.730;2023-03-03T06:03:27;91225.00;;;0.87;100.00
59274;BME280;45044;41.572;24.730;2023-03-03T06:05:54;91224.81;;;0.92;100.00
59274;BME280;45044;41.572;24.730;2023-03-03T06:08:21;91229.09;;;0.67;100.00
59274;BME280;45044;41.572;24.730;2023-03-03T06:10:48;91227.16;;;0.85;100.00
59274;BME280;45044;41.572;24.730;2023-03-03T06:13:15;91222.38;;;0.66;100.00
59274;BME280;45044;41.572;24.730;2023-03-03T06:15:42;91224.31;;;0.78;100.00
59274;BME280;45044;41.572;24.730;2023-03-03T06:18:09;91223.22;;;0.79;100.00
59274;BME280;45044;41.572;24.730;2023-03-03T06:20:37;91230.22;;;0.78;100.00
59274;BME280;45044;41.572;24.730;2023-03-03T06:23:04;91227.03;;;0.81;100.00
59274;BME280;45044;41.572;24.730;2023-03-03T06:25:31;91227.28;;;0.89;100.00
59274;BME280;45044;41.572;24.730;2023-03-03T06:28:01;91224.75;;;0.80;100.00
59274;BME280;45044;41.572;24.730;2023-03-03T06:30:28;91216.09;;;0.76;100.00
59274;BME280;45044;41.572;24.730;2023-03-03T06:32:56;91224.00;;;0.79;100.00
59274;BME280;45044;41.572;24.730;2023-03-03T06:35:22;91222.50;;;0.69;100.00
59274;BME280;45044;41.572;24.730;2023-03-03T06:37:49;91215.34;;;0.45;100.00
59274;BME280;45044;41.572;24.730;2023-03-03T06:40:16;91220.97;;;0.47;100.00
59274;BME280;45044;41.572;24.730;2023-03-03T06:42:43;91229.13;;;0.58;100.00
59274;BME280;45044;41.572;24.730;2023-03-03T06:45:10;91232.72;;;0.66;100.00
59274;BME280;45044;41.572;24.730;2023-03-03T06:47:37;91234.78;;;0.81;100.00
59274;BME280;45044;41.572;24.730;2023-03-03T06:50:05;91226.97;;;0.90;100.00
59274;BME280;45044;41.572;24.730;2023-03-03T06:52:33;91227.47;;;0.83;100.00
59274;BME280;45044;41.572;24.730;2023-03-03T06:55:01;91227.91;;;0.86;100.00
59274;BME280;45044;41.572;24.730;2023-03-03T06:57:35;91236.19;;;1.00;100.00
59274;BME280;45044;41.572;24.730;2023-03-03T07:00:26;91234.09;;;0.93;100.00
59274;BME280;45044;41.572;24.730;2023-03-03T07:03:04;91229.88;;;0.89;100.00
59274;BME280;45044;41.572;24.730;2023-03-03T07:05:33;91228.25;;;1.05;100.00
59274;BME280;45044;41.572;24.730;2023-03-03T07:08:00;91234.75;;;1.12;100.00
59274;BME280;45044;41.572;24.730;2023-03-03T07:10:28;91234.09;;;1.15;100.00
59274;BME280;45044;41.572;24.730;2023-03-03T07:13:01;91233.47;;;0.97;100.00
59274;BME280;45044;41.572;24.730;2023-03-03T07:15:34;91239.97;;;1.03;100.00
59274;BME280;45044;41.572;24.730;2023-03-03T07:18:01;91233.72;;;0.82;100.00
59274;BME280;45044;41.572;24.730;2023-03-03T07:20:39;91234.16;;;0.85;100.00
59274;BME280;45044;41.572;24.730;2023-03-03T07:23:20;91231.72;;;1.10;100.00
59274;BME280;45044;41.572;24.730;2023-03-03T07:25:49;91231.00;;;1.00;100.00
59274;BME280;45044;41.572;24.730;2023-03-03T07:28:21;91237.19;;;0.87;100.00
59274;BME280;45044;41.572;24.730;2023-03-03T07:30:49;91233.03;;;1.16;100.00
59274;BME280;45044;41.572;24.730;2023-03-03T07:33:42;91235.69;;;1.28;100.00
59274;BME280;45044;41.572;24.730;2023-03-03T07:39:00;91236.03;;;1.27;100.00
59274;BME280;45044;41.572;24.730;2023-03-03T07:41:27;91225.84;;;1.22;100.00
59274;BME280;45044;41.572;24.730;2023-03-03T07:44:04;91231.25;;;1.07;100.00
59274;BME280;45044;41.572;24.730;2023-03-03T07:46:46;91228.00;;;1.19;100.00
59274;BME280;45044;41.572;24.730;2023-03-03T07:51:53;91222.94;;;1.23;100.00
59274;BME280;45044;41.572;24.730;2023-03-03T07:54:37;91221.84;;;1.46;100.00
59274;BME280;45044;41.572;24.730;2023-03-03T07:57:22;91230.63;;;1.53;100.00
59274;BME280;45044;41.572;24.730;2023-03-03T08:02:46;91216.03;;;1.83;100.00
59274;BME280;45044;41.572;24.730;2023-03-03T08:07:49;91213.56;;;1.99;100.00
59274;BME280;45044;41.572;24.730;2023-03-03T08:10:34;91198.03;;;2.24;100.00
59274;BME280;45044;41.572;24.730;2023-03-03T08:13:13;91200.50;;;1.95;100.00
59274;BME280;45044;41.572;24.730;2023-03-03T08:15:42;91195.00;;;2.22;100.00
59274;BME280;45044;41.572;24.730;2023-03-03T08:18:22;91191.63;;;2.84;100.00
59274;BME280;45044;41.572;24.730;2023-03-03T08:20:51;91190.56;;;2.85;100.00
59274;BME280;45044;41.572;24.730;2023-03-03T08:23:20;91191.41;;;3.02;100.00
59274;BME280;45044;41.572;24.730;2023-03-03T08:25:49;91182.25;;;2.79;100.00
59274;BME280;45044;41.572;24.730;2023-03-03T08:28:18;91185.81;;;2.87;100.00
59274;BME280;45044;41.572;24.730;2023-03-03T08:30:45;91180.00;;;3.47;100.00
59274;BME280;45044;41.572;24.730;2023-03-03T08:33:18;91176.81;;;4.48;100.00
59274;BME280;45044;41.572;24.730;2023-03-03T08:35:45;91176.81;;;6.03;100.00
59274;BME280;45044;41.572;24.730;2023-03-03T08:38:14;91176.81;;;6.77;100.00
59274;BME280;45044;41.572;24.730;2023-03-03T08:40:41;91171.63;;;7.38;100.00
59274;BME280;45044;41.572;24.730;2023-03-03T08:43:08;91170.13;;;6.25;100.00
59274;BME280;45044;41.572;24.730;2023-03-03T08:45:35;91168.72;;;6.31;100.00
59274;BME280;45044;41.572;24.730;2023-03-03T08:48:02;91170.00;;;6.18;100.00
59274;BME280;45044;41.572;24.730;2023-03-03T08:50:31;91165.16;;;6.43;100.00
59274;BME280;45044;41.572;24.730;2023-03-03T08:52:58;91165.25;;;6.74;100.00
59274;BME280;45044;41.572;24.730;2023-03-03T08:55:25;91170.69;;;6.15;100.00
59274;BME280;45044;41.572;24.730;2023-03-03T08:57:51;91169.19;;;6.14;100.00
59274;BME280;45044;41.572;24.730;2023-03-03T09:00:23;91170.94;;;7.41;100.00
59274;BME280;45044;41.572;24.730;2023-03-03T09:02:52;91151.25;;;7.93;100.00
59274;BME280;45044;41.572;24.730;2023-03-03T09:05:20;91171.31;;;8.65;100.00
59274;BME280;45044;41.572;24.730;2023-03-03T09:07:47;91158.59;;;8.67;100.00
59274;BME280;45044;41.572;24.730;2023-03-03T09:10:17;91160.69;;;7.63;100.00
59274;BME280;45044;41.572;24.730;2023-03-03T09:12:46;91165.22;;;7.32;100.00
59274;BME280;45044;41.572;24.730;2023-03-03T09:15:30;91151.09;;;6.52;100.00
59274;BME280;45044;41.572;24.730;2023-03-03T09:20:39;91154.34;;;5.55;100.00
59274;BME280;45044;41.572;24.730;2023-03-03T09:26:27;91156.44;;;5.65;100.00
59274;BME280;45044;41.572;24.730;2023-03-03T09:29:17;91157.94;;;5.46;100.00
59274;BME280;45044;41.572;24.730;2023-03-03T09:31:48;91152.94;;;5.57;100.00
59274;BME280;45044;41.572;24.730;2023-03-03T09:34:27;91157.31;;;5.33;100.00
59274;BME280;45044;41.572;24.730;2023-03-03T09:37:19;91153.09;;;5.25;100.00
59274;BME280;45044;41.572;24.730;2023-03-03T09:39:52;91166.72;;;5.18;100.00
59274;BME280;45044;41.572;24.730;2023-03-03T09:42:32;91159.25;;;5.36;100.00
59274;BME280;45044;41.572;24.730;2023-03-03T09:50:58;91172.00;;;5.22;100.00
59274;BME280;45044;41.572;24.730;2023-03-03T09:54:15;91169.81;;;5.24;100.00
59274;BME280;45044;41.572;24.730;2023-03-03T09:59:17;91172.41;;;5.04;100.00
59274;BME280;45044;41.572;24.730;2023-03-03T10:10:42;91163.09;;;5.23;100.00
59274;BME280;45044;41.572;24.730;2023-03-03T10:21:35;91158.88;;;4.98;100.00
59274;BME280;45044;41.572;24.730;2023-03-03T10:27:14;91157.25;;;4.90;100.00
59274;BME280;45044;41.572;24.730;2023-03-03T10:40:35;91150.97;;;4.75;100.00
59274;BME280;45044;41.572;24.730;2023-03-03T10:51:29;91136.19;;;4.79;100.00
59274;BME280;45044;41.572;24.730;2023-03-03T10:59:47;91119.78;;;4.42;100.00
59274;BME280;45044;41.572;24.730;2023-03-03T11:02:28;91119.72;;;4.39;100.00
59274;BME280;45044;41.572;24.730;2023-03-03T11:05:07;91128.47;;;4.66;100.00
59274;BME280;45044;41.572;24.730;2023-03-03T11:08:33;91121.44;;;4.51;100.00
59274;BME280;45044;41.572;24.730;2023-03-03T11:11:06;91124.69;;;4.28;100.00
59274;BME280;45044;41.572;24.730;2023-03-03T11:22:33;91095.56;;;4.06;100.00
59274;BME280;45044;41.572;24.730;2023-03-03T11:25:15;91115.41;;;4.11;100.00
59274;BME280;45044;41.572;24.730;2023-03-03T11:33:57;91112.38;;;3.92;100.00
59274;BME280;45044;41.572;24.730;2023-03-03T11:36:30;91114.13;;;3.88;100.00
59274;BME280;45044;41.572;24.730;2023-03-03T11:39:10;91110.59;;;4.13;100.00
59274;BME280;45044;41.572;24.730;2023-03-03T11:42:01;91109.50;;;4.14;100.00
59274;BME280;45044;41.572;24.730;2023-03-03T11:44:39;91104.91;;;4.07;100.00
59274;BME280;45044;41.572;24.730;2023-03-03T11:47:25;91091.81;;;4.19;100.00
59274;BME280;45044;41.572;24.730;2023-03-03T11:50:01;91091.97;;;4.27;100.00
59274;BME280;45044;41.572;24.730;2023-03-03T11:55:28;91087.88;;;4.46;100.00
59274;BME280;45044;41.572;24.730;2023-03-03T12:09:07;91073.94;;;4.74;100.00
59274;BME280;45044;41.572;24.730;2023-03-03T12:14:21;91076.63;;;4.77;100.00
59274;BME280;45044;41.572;24.730;2023-03-03T12:32:29;91056.69;;;5.05;100.00
59274;BME280;45044;41.572;24.730;2023-03-03T12:38:13;91061.06;;;5.01;100.00
59274;BME280;45044;41.572;24.730;2023-03-03T12:41:09;91055.69;;;5.13;100.00
59274;BME280;45044;41.572;24.730;2023-03-03T12:46:43;91052.63;;;6.02;100.00
59274;BME280;45044;41.572;24.730;2023-03-03T12:49:11;91056.94;;;6.41;100.00
59274;BME280;45044;41.572;24.730;2023-03-03T12:59:54;91058.03;;;6.67;100.00
59274;BME280;45044;41.572;24.730;2023-03-03T13:02:37;91049.59;;;6.50;100.00
59274;BME280;45044;41.572;24.730;2023-03-03T13:05:23;91045.69;;;6.37;100.00
59274;BME280;45044;41.572;24.730;2023-03-03T13:13:34;91044.03;;;6.52;100.00
59274;BME280;45044;41.572;24.730;2023-03-03T13:18:50;91040.03;;;6.62;100.00
59274;BME280;45044;41.572;24.730;2023-03-03T13:21:27;91033.53;;;6.48;100.00
59274;BME280;45044;41.572;24.730;2023-03-03T13:26:54;91039.84;;;6.47;100.00
59274;BME280;45044;41.572;24.730;2023-03-03T13:29:42;91039.63;;;6.56;100.00
59274;BME280;45044;41.572;24.730;2023-03-03T13:37:47;91003.13;;;6.32;100.00
59274;BME280;45044;41.572;24.730;2023-03-03T13:40:25;91042.97;;;6.56;100.00
59274;BME280;45044;41.572;24.730;2023-03-03T13:43:03;91041.03;;;6.22;100.00
59274;BME280;45044;41.572;24.730;2023-03-03T13:45:42;91046.31;;;6.26;100.00
59274;BME280;45044;41.572;24.730;2023-03-03T13:48:42;91036.00;;;6.37;100.00
59274;BME280;45044;41.572;24.730;2023-03-03T13:51:50;91034.72;;;6.54;100.00
59274;BME280;45044;41.572;24.730;2023-03-03T14:05:34;91028.94;;;6.10;100.00
59274;BME280;45044;41.572;24.730;2023-03-03T14:10:43;91024.03;;;6.32;100.00
59274;BME280;45044;41.572;24.730;2023-03-03T14:16:33;91017.69;;;6.33;100.00
59274;BME280;45044;41.572;24.730;2023-03-03T14:24:18;91017.56;;;5.99;100.00
59274;BME280;45044;41.572;24.730;2023-03-03T14:26:48;91018.84;;;5.85;100.00
59274;BME280;45044;41.572;24.730;2023-03-03T14:31:56;91024.88;;;5.90;100.00
59274;BME280;45044;41.572;24.730;2023-03-03T14:34:29;91022.94;;;5.83;100.00
59274;BME280;45044;41.572;24.730;2023-03-03T14:37:20;91021.88;;;5.87;100.00
59274;BME280;45044;41.572;24.730;2023-03-03T14:39:58;91028.19;;;5.86;100.00
59274;BME280;45044;41.572;24.730;2023-03-03T14:42:36;91029.28;;;5.85;100.00
59274;BME280;45044;41.572;24.730;2023-03-03T14:47:56;91033.78;;;5.85;100.00
59274;BME280;45044;41.572;24.730;2023-03-03T14:50:33;91026.97;;;5.80;100.00
59274;BME280;45044;41.572;24.730;2023-03-03T14:53:29;91039.00;;;5.85;100.00
59274;BME280;45044;41.572;24.730;2023-03-03T14:56:24;91042.09;;;5.94;100.00
59274;BME280;45044;41.572;24.730;2023-03-03T15:01:37;91030.41;;;5.84;100.00
59274;BME280;45044;41.572;24.730;2023-03-03T15:04:22;91033.38;;;5.83;100.00
59274;BME280;45044;41.572;24.730;2023-03-03T15:06:50;91025.75;;;5.47;100.00
59274;BME280;45044;41.572;24.730;2023-03-03T15:11:57;91026.63;;;5.35;100.00
59274;BME280;45044;41.572;24.730;2023-03-03T15:14:43;91032.91;;;5.30;100.00
59274;BME280;45044;41.572;24.730;2023-03-03T15:19:58;91025.22;;;5.37;100.00
59274;BME280;45044;41.572;24.730;2023-03-03T15:25:21;91033.56;;;5.47;100.00
59274;BME280;45044;41.572;24.730;2023-03-03T15:28:25;91033.72;;;5.34;100.00
59274;BME280;45044;41.572;24.730;2023-03-03T15:37:30;91040.78;;;4.90;100.00
59274;BME280;45044;41.572;24.730;2023-03-03T15:52:17;91059.34;;;4.89;100.00
59274;BME280;45044;41.572;24.730;2023-03-03T16:03:28;91063.81;;;4.69;100.00
59274;BME280;45044;41.572;24.730;2023-03-03T16:06:04;91066.84;;;4.54;100.00
59274;BME280;45044;41.572;24.730;2023-03-03T16:14:36;91077.56;;;4.33;100.00
59274;BME280;45044;41.572;24.730;2023-03-03T16:22:26;91087.66;;;4.18;100.00
59274;BME280;45044;41.572;24.730;2023-03-03T16:28:03;91103.03;;;4.07;100.00
59274;BME280;45044;41.572;24.730;2023-03-03T16:30:46;91100.09;;;4.09;100.00
59274;BME280;45044;41.572;24.730;2023-03-03T16:33:35;91113.69;;;4.02;100.00
59274;BME280;45044;41.572;24.730;2023-03-03T16:39:08;91115.13;;;3.83;100.00
59274;BME280;45044;41.572;24.730;2023-03-03T16:47:15;91118.16;;;4.02;100.00
59274;BME280;45044;41.572;24.730;2023-03-03T16:49:46;91131.91;;;3.86;100.00
59274;BME280;45044;41.572;24.730;2023-03-03T16:52:24;91132.84;;;3.78;100.00
59274;BME280;45044;41.572;24.730;2023-03-03T16:55:04;91145.91;;;3.65;100.00
59274;BME280;45044;41.572;24.730;2023-03-03T16:57:52;91143.69;;;3.51;100.00
59274;BME280;45044;41.572;24.730;2023-03-03T17:00:27;91148.09;;;3.63;100.00
59274;BME280;45044;41.572;24.730;2023-03-03T17:03:33;91145.19;;;3.36;100.00
59274;BME280;45044;41.572;24.730;2023-03-03T17:09:28;91159.88;;;3.16;100.00
59274;BME280;45044;41.572;24.730;2023-03-03T17:12:11;91168.34;;;3.00;100.00
59274;BME280;45044;41.572;24.730;2023-03-03T17:27:08;91191.72;;;3.13;100.00
59274;BME280;45044;41.572;24.730;2023-03-03T17:32:38;91195.47;;;3.15;100.00
59274;BME280;45044;41.572;24.730;2023-03-03T17:35:22;91198.78;;;2.99;100.00
59274;BME280;45044;41.572;24.730;2023-03-03T17:45:51;91224.09;;;2.90;100.00